createdAt,value
2023-01-30T00:00:08.431Z,56.25
2023-01-30T00:02:35.626Z,61.65
2023-01-30T00:05:02.911Z,52.10
2023-01-30T00:07:30.134Z,52.97
2023-01-30T00:09:57.259Z,54.63
2023-01-30T00:12:24.625Z,56.38
2023-01-30T00:14:52.463Z,58.45
2023-01-30T00:17:19.807Z,51.88
2023-01-30T00:19:46.975Z,51.38
2023-01-30T00:22:14.184Z,48.63
2023-01-30T00:24:41.443Z,56.55
2023-01-30T00:27:08.590Z,48.22
2023-01-30T00:29:36.411Z,56.00
2023-01-30T00:32:03.678Z,48.13
2023-01-30T00:34:30.793Z,49.17
2023-01-30T00:39:45.252Z,44.10
2023-01-30T00:42:31.379Z,56.53
2023-01-30T00:45:19.058Z,52.70
2023-01-30T00:47:48.191Z,57.50
2023-01-30T00:50:15.870Z,48.10
2023-01-30T00:52:43.974Z,56.25
2023-01-30T00:55:12.482Z,51.30
2023-01-30T00:57:39.618Z,56.50
2023-01-30T01:00:07.837Z,57.85
2023-01-30T01:02:35.087Z,50.33
2023-01-30T01:05:03.662Z,56.67
2023-01-30T01:07:31.893Z,52.28
2023-01-30T01:09:59.160Z,54.45
2023-01-30T01:12:26.212Z,52.47
2023-01-30T01:14:53.506Z,50.10
2023-01-30T01:17:24.897Z,52.35
2023-01-30T01:19:52.306Z,50.70
2023-01-30T01:22:19.580Z,53.40
2023-01-30T01:24:46.651Z,53.22
2023-01-30T01:27:13.929Z,54.83
2023-01-30T01:29:41.063Z,56.67
2023-01-30T01:32:08.329Z,52.25
2023-01-30T01:34:37.837Z,54.17
2023-01-30T01:37:06.309Z,51.35
2023-01-30T01:40:03.095Z,51.53
2023-01-30T01:42:32.780Z,60.88
2023-01-30T01:45:12.032Z,49.35
2023-01-30T01:47:46.087Z,57.97
2023-01-30T01:50:15.882Z,54.47
2023-01-30T01:52:44.522Z,53.55
2023-01-30T01:55:12.118Z,52.17
2023-01-30T01:57:44.103Z,54.70
2023-01-30T02:00:13.161Z,57.83
2023-01-30T02:02:44.544Z,52.15
2023-01-30T02:05:16.125Z,51.88
2023-01-30T02:07:48.571Z,60.75
2023-01-30T02:10:21.480Z,62.35
2023-01-30T02:12:48.804Z,56.03
2023-01-30T02:15:18.790Z,48.25
2023-01-30T02:17:46.734Z,51.92
2023-01-30T02:20:40.392Z,57.67
2023-01-30T02:23:11.579Z,50.53
2023-01-30T02:25:41.859Z,50.45
2023-01-30T02:28:27.865Z,50.05
2023-01-30T02:31:14.406Z,50.42
2023-01-30T02:34:00.614Z,52.47
2023-01-30T02:36:47.361Z,57.88
2023-01-30T02:39:14.432Z,48.63
2023-01-30T02:42:04.515Z,50.97
2023-01-30T02:44:35.829Z,54.33
2023-01-30T02:47:13.277Z,48.47
2023-01-30T02:49:47.267Z,46.78
2023-01-30T02:52:15.793Z,47.75
2023-01-30T02:54:43.880Z,38.85
2023-01-30T02:57:25.358Z,45.33
2023-01-30T02:59:58.347Z,43.30
2023-01-30T03:02:45.347Z,32.28
2023-01-30T03:05:25.636Z,37.35
2023-01-30T03:07:59.127Z,32.45
2023-01-30T03:10:26.288Z,27.73
2023-01-30T03:12:58.486Z,31.92
2023-01-30T03:15:25.623Z,21.10
2023-01-30T03:17:53.427Z,20.00
2023-01-30T03:20:23.648Z,20.92
2023-01-30T03:22:51.680Z,13.38
2023-01-30T03:25:21.805Z,13.68
2023-01-30T03:27:49.652Z,13.95
2023-01-30T03:30:16.959Z,12.82
2023-01-30T03:32:44.215Z,11.73
2023-01-30T03:35:12.702Z,13.40
2023-01-30T03:37:40.054Z,7.38
2023-01-30T03:40:07.681Z,15.07
2023-01-30T03:42:35.109Z,12.57
2023-01-30T03:45:02.311Z,9.57
2023-01-30T03:47:29.596Z,10.30
2023-01-30T03:49:56.833Z,11.52
2023-01-30T03:52:23.961Z,14.57
2023-01-30T03:54:51.410Z,13.27
2023-01-30T03:57:18.627Z,8.98
2023-01-30T03:59:45.904Z,11.02
2023-01-30T04:02:20.754Z,11.70
2023-01-30T04:04:48.338Z,14.38
2023-01-30T04:07:15.834Z,12.85
2023-01-30T04:09:45.207Z,14.07
2023-01-30T04:12:13.923Z,15.80
2023-01-30T04:14:50.364Z,16.15
2023-01-30T04:17:27.973Z,16.67
2023-01-30T04:20:25.059Z,13.98
2023-01-30T04:22:56.426Z,10.88
2023-01-30T04:25:25.492Z,17.05
2023-01-30T04:27:53.355Z,17.88
2023-01-30T04:30:27.693Z,17.52
2023-01-30T04:33:06.983Z,21.67
2023-01-30T04:35:34.317Z,11.63
2023-01-30T04:38:01.785Z,12.48
2023-01-30T04:40:29.041Z,14.80
2023-01-30T04:42:56.914Z,16.20
2023-01-30T04:48:18.437Z,22.65
2023-01-30T04:50:48.175Z,14.00
2023-01-30T04:53:15.660Z,12.05
2023-01-30T04:55:43.006Z,19.33
2023-01-30T04:58:10.418Z,17.83
2023-01-30T05:00:37.802Z,17.13
2023-01-30T05:03:06.487Z,16.73
2023-01-30T05:05:34.325Z,17.60
2023-01-30T05:08:01.677Z,20.00
2023-01-30T05:10:29.083Z,10.80
2023-01-30T05:12:56.286Z,19.00
2023-01-30T05:15:23.438Z,13.32
2023-01-30T05:17:50.722Z,14.25
2023-01-30T05:20:17.891Z,13.13
2023-01-30T05:22:45.068Z,20.58
2023-01-30T05:25:12.326Z,16.23
2023-01-30T05:27:39.499Z,17.20
2023-01-30T05:30:06.922Z,19.25
2023-01-30T05:32:34.063Z,16.02
2023-01-30T05:35:01.204Z,14.48
2023-01-30T05:37:28.302Z,16.15
2023-01-30T05:39:55.447Z,14.05
2023-01-30T05:42:22.609Z,10.88
2023-01-30T05:44:49.782Z,14.30
2023-01-30T05:47:16.852Z,14.57
2023-01-30T05:49:43.990Z,15.25
2023-01-30T05:52:11.102Z,11.15
2023-01-30T05:54:38.212Z,9.98
2023-01-30T05:57:05.385Z,18.33
2023-01-30T05:59:32.578Z,13.45
2023-01-30T06:01:59.686Z,15.98
2023-01-30T06:04:26.756Z,19.55
2023-01-30T06:06:53.880Z,16.13
2023-01-30T06:09:21.129Z,19.13
2023-01-30T06:11:48.246Z,16.60
2023-01-30T06:14:16.416Z,11.75
2023-01-30T06:16:43.595Z,13.00
2023-01-30T06:19:10.796Z,13.25
2023-01-30T06:21:37.878Z,19.73
2023-01-30T06:24:05.101Z,10.60
2023-01-30T06:26:32.246Z,17.10
2023-01-30T06:28:59.355Z,18.67
2023-01-30T06:31:26.595Z,22.00
2023-01-30T06:33:55.959Z,26.10
2023-01-30T06:36:23.100Z,20.23
2023-01-30T06:38:50.206Z,25.10
2023-01-30T06:41:17.470Z,20.23
2023-01-30T06:43:44.713Z,12.93
2023-01-30T06:46:11.978Z,23.85
2023-01-30T06:48:40.268Z,18.38
2023-01-30T06:51:07.455Z,18.85
2023-01-30T06:53:34.613Z,22.65
2023-01-30T06:56:21.975Z,19.98
2023-01-30T06:58:49.185Z,25.63
2023-01-30T07:01:16.322Z,24.00
2023-01-30T07:03:43.474Z,14.35
2023-01-30T07:06:10.679Z,18.85
2023-01-30T07:08:37.780Z,20.50
2023-01-30T07:11:07.872Z,14.90
2023-01-30T07:13:34.994Z,17.10
2023-01-30T07:16:02.223Z,17.63
2023-01-30T07:18:29.360Z,21.65
2023-01-30T07:20:56.723Z,18.98
2023-01-30T07:23:23.797Z,22.23
2023-01-30T07:25:50.939Z,14.18
2023-01-30T07:28:18.144Z,23.10
2023-01-30T07:30:45.392Z,15.77
2023-01-30T07:33:12.553Z,14.90
2023-01-30T07:35:39.797Z,21.60
2023-01-30T07:38:07.063Z,14.82
2023-01-30T07:40:34.537Z,22.20
2023-01-30T07:43:02.935Z,20.75
2023-01-30T07:45:36.627Z,13.52
2023-01-30T07:48:03.794Z,24.88
2023-01-30T07:50:30.887Z,20.90
2023-01-30T07:52:58.017Z,14.13
2023-01-30T07:55:25.534Z,20.58
2023-01-30T07:57:52.631Z,20.17
2023-01-30T08:00:20.387Z,16.65
2023-01-30T08:02:47.725Z,19.25
2023-01-30T08:05:14.899Z,21.20
2023-01-30T08:07:42.031Z,15.13
2023-01-30T08:10:11.914Z,25.55
2023-01-30T08:12:40.447Z,16.80
2023-01-30T08:15:08.922Z,15.70
2023-01-30T08:17:40.832Z,19.55
2023-01-30T08:20:10.806Z,24.40
2023-01-30T08:22:40.872Z,24.42
2023-01-30T08:25:08.962Z,20.92
2023-01-30T08:27:36.121Z,22.63
2023-01-30T08:30:03.246Z,22.45
2023-01-30T08:32:30.339Z,18.52
2023-01-30T08:34:57.666Z,24.70
2023-01-30T08:37:24.712Z,21.25
2023-01-30T08:39:51.874Z,20.42
2023-01-30T08:42:18.976Z,23.33
2023-01-30T08:44:46.145Z,22.98
2023-01-30T08:47:13.358Z,18.63
2023-01-30T08:49:40.439Z,25.38
2023-01-30T08:52:07.515Z,18.48
2023-01-30T08:54:34.793Z,24.73
2023-01-30T08:57:01.971Z,28.20
2023-01-30T08:59:29.033Z,21.42
2023-01-30T09:01:56.163Z,15.95
2023-01-30T09:04:24.984Z,18.58
2023-01-30T09:06:52.074Z,22.05
2023-01-30T09:09:19.150Z,20.98
2023-01-30T09:11:48.023Z,23.05
2023-01-30T09:14:19.847Z,21.25
2023-01-30T09:16:55.833Z,27.65
2023-01-30T09:19:23.894Z,21.98
2023-01-30T09:21:51.754Z,20.33
2023-01-30T09:24:19.218Z,24.55
2023-01-30T09:26:46.408Z,15.60
2023-01-30T09:29:13.571Z,25.05
2023-01-30T09:31:41.120Z,17.13
2023-01-30T09:34:08.610Z,21.83
2023-01-30T09:36:35.783Z,18.73
2023-01-30T09:39:02.922Z,15.85
2023-01-30T09:41:45.137Z,17.50
2023-01-30T09:44:31.032Z,21.45
2023-01-30T09:47:00.845Z,16.77
2023-01-30T09:49:36.868Z,22.15
2023-01-30T09:52:28.540Z,21.13
2023-01-30T09:55:08.169Z,20.33
2023-01-30T09:57:36.213Z,20.17
2023-01-30T10:00:08.530Z,17.65
2023-01-30T10:02:48.443Z,26.75
2023-01-30T10:05:15.599Z,16.85
2023-01-30T10:07:43.104Z,17.17
2023-01-30T10:10:17.708Z,15.45
2023-01-30T10:12:44.989Z,18.58
2023-01-30T10:15:26.255Z,14.35
2023-01-30T10:18:11.394Z,17.60
2023-01-30T10:20:44.312Z,22.92
2023-01-30T10:23:14.482Z,17.88
2023-01-30T10:25:44.777Z,17.95
2023-01-30T10:28:32.056Z,17.27
2023-01-30T10:31:02.707Z,21.33
2023-01-30T10:33:33.662Z,15.40
2023-01-30T10:36:04.931Z,23.80
2023-01-30T10:38:48.666Z,20.00
2023-01-30T10:41:15.770Z,19.70
2023-01-30T10:43:47.998Z,25.75
2023-01-30T10:46:34.418Z,16.95
2023-01-30T10:49:05.691Z,19.75
2023-01-30T10:51:35.580Z,26.55
2023-01-30T10:54:13.278Z,17.45
2023-01-30T10:57:00.599Z,20.50
2023-01-30T10:59:43.186Z,18.77
2023-01-30T11:02:16.327Z,17.73
2023-01-30T11:04:46.914Z,18.70
2023-01-30T11:07:14.402Z,22.08
2023-01-30T11:09:41.512Z,21.48
2023-01-30T11:12:08.815Z,17.20
2023-01-30T11:14:54.926Z,18.10
2023-01-30T11:17:23.318Z,24.70
2023-01-30T11:19:57.204Z,18.15
2023-01-30T11:22:27.016Z,17.35
2023-01-30T11:25:01.545Z,17.77
2023-01-30T11:27:29.934Z,19.33
2023-01-30T11:30:05.641Z,21.30
2023-01-30T11:32:32.869Z,21.08
2023-01-30T11:35:08.885Z,16.25
2023-01-30T11:37:40.501Z,17.88
2023-01-30T11:40:28.017Z,12.05
2023-01-30T11:43:05.657Z,13.98
2023-01-30T11:45:40.416Z,21.48
2023-01-30T11:48:31.549Z,17.17
2023-01-30T11:51:06.255Z,15.40
2023-01-30T11:53:37.456Z,20.38
2023-01-30T11:56:08.821Z,19.80
2023-01-30T11:58:39.085Z,19.17
2023-01-30T12:01:11.400Z,23.90
2023-01-30T12:03:45.217Z,23.55
2023-01-30T12:06:12.433Z,19.17
2023-01-30T12:08:43.042Z,26.40
2023-01-30T12:11:33.580Z,22.10
2023-01-30T12:14:09.700Z,26.10
2023-01-30T12:16:58.537Z,19.45
2023-01-30T12:19:37.401Z,24.58
2023-01-30T12:22:10.130Z,15.95
2023-01-30T12:24:49.042Z,12.68
2023-01-30T12:27:22.108Z,18.85
2023-01-30T12:29:49.328Z,12.48
2023-01-30T12:32:20.550Z,10.73
2023-01-30T12:34:48.395Z,12.63
2023-01-30T12:37:34.344Z,17.20
2023-01-30T12:40:20.366Z,11.93
2023-01-30T12:43:09.806Z,11.18
2023-01-30T12:45:43.879Z,11.02
2023-01-30T12:51:42.402Z,11.02
2023-01-30T12:54:20.282Z,9.13
2023-01-30T12:57:04.454Z,10.60
2023-01-30T12:59:48.391Z,13.98
2023-01-30T13:02:18.620Z,12.40
2023-01-30T13:04:56.161Z,10.80
2023-01-30T13:07:29.083Z,15.38
2023-01-30T13:09:59.034Z,8.32
2023-01-30T13:12:33.940Z,12.88
2023-01-30T13:15:04.204Z,10.30
2023-01-30T13:17:52.913Z,15.82
2023-01-30T13:20:31.429Z,15.15
2023-01-30T13:23:02.489Z,12.75
2023-01-30T13:25:35.775Z,13.15
2023-01-30T13:28:25.601Z,18.60
2023-01-30T13:30:54.129Z,18.05
2023-01-30T13:33:23.836Z,9.73
2023-01-30T13:35:52.948Z,19.15
2023-01-30T13:38:25.561Z,10.82
2023-01-30T13:43:40.946Z,20.90
2023-01-30T13:46:10.267Z,14.65
2023-01-30T13:48:56.359Z,15.07
2023-01-30T13:51:23.539Z,12.93
2023-01-30T13:53:50.600Z,8.25
2023-01-30T13:56:41.258Z,13.20
2023-01-30T13:59:29.040Z,15.32
2023-01-30T14:02:02.374Z,13.95
2023-01-30T14:04:41.732Z,11.35
2023-01-30T14:07:29.146Z,11.82
2023-01-30T14:10:12.254Z,11.43
2023-01-30T14:12:45.618Z,21.25
2023-01-30T14:15:16.416Z,13.80
2023-01-30T14:18:03.051Z,15.98
2023-01-30T14:20:32.078Z,32.63
2023-01-30T14:23:01.064Z,15.68
2023-01-30T14:25:32.772Z,14.50
2023-01-30T14:28:01.629Z,17.85
2023-01-30T14:30:31.717Z,19.27
2023-01-30T14:33:00.193Z,17.33
2023-01-30T14:35:28.307Z,17.98
2023-01-30T14:38:09.955Z,23.45
2023-01-30T14:40:38.042Z,22.17
2023-01-30T14:43:14.841Z,21.08
2023-01-30T14:45:45.628Z,21.48
2023-01-30T14:48:32.232Z,25.58
2023-01-30T14:51:18.321Z,17.15
2023-01-30T14:53:57.668Z,20.20
2023-01-30T14:56:43.366Z,24.48
2023-01-30T14:59:16.499Z,23.05
2023-01-30T15:02:02.380Z,23.08
2023-01-30T15:04:34.459Z,21.50
2023-01-30T15:07:04.973Z,21.20
2023-01-30T15:09:32.826Z,26.80
2023-01-30T15:12:09.203Z,21.77
2023-01-30T15:14:44.927Z,16.00
2023-01-30T15:17:26.714Z,19.25
2023-01-30T15:19:53.807Z,16.77
2023-01-30T15:22:25.688Z,20.50
2023-01-30T15:25:31.666Z,21.65
2023-01-30T15:28:04.702Z,20.40
2023-01-30T15:30:38.021Z,19.65
2023-01-30T15:33:19.916Z,22.88
2023-01-30T15:35:49.987Z,15.80
2023-01-30T15:38:25.989Z,20.77
2023-01-30T15:40:54.429Z,28.75
2023-01-30T15:43:21.538Z,20.65
2023-01-30T15:46:07.939Z,20.55
2023-01-30T15:48:57.714Z,31.35
2023-01-30T15:51:28.053Z,21.88
2023-01-30T15:53:56.038Z,22.92
2023-01-30T15:56:28.325Z,24.75
2023-01-30T15:58:57.146Z,22.80
2023-01-30T16:01:24.557Z,20.67
2023-01-30T16:03:53.320Z,18.40
2023-01-30T16:06:40.669Z,24.02
2023-01-30T16:09:20.188Z,22.65
2023-01-30T16:11:47.555Z,25.00
2023-01-30T16:14:14.700Z,24.38
2023-01-30T16:16:47.972Z,29.98
2023-01-30T16:19:34.744Z,27.95
2023-01-30T16:22:04.064Z,19.23
2023-01-30T16:24:32.791Z,25.58
2023-01-30T16:27:02.661Z,20.83
2023-01-30T16:29:32.133Z,18.10
2023-01-30T16:31:59.836Z,25.85
2023-01-30T16:34:32.935Z,36.03
2023-01-30T16:37:08.406Z,22.80
2023-01-30T16:39:36.984Z,24.25
2023-01-30T16:42:24.659Z,24.90
2023-01-30T16:44:52.050Z,19.60
2023-01-30T16:47:22.330Z,21.10
2023-01-30T16:49:50.235Z,31.45
2023-01-30T16:52:28.650Z,23.80
2023-01-30T16:54:58.066Z,25.38
2023-01-30T16:57:37.260Z,32.25
2023-01-30T17:00:10.104Z,21.40
2023-01-30T17:02:39.560Z,24.98
2023-01-30T17:05:29.829Z,26.23
2023-01-30T17:07:58.143Z,24.60
2023-01-30T17:10:37.368Z,22.13
2023-01-30T17:13:14.655Z,29.08
2023-01-30T17:15:41.843Z,25.80
2023-01-30T17:18:09.787Z,26.23
2023-01-30T17:20:39.018Z,29.88
2023-01-30T17:23:08.823Z,21.33
2023-01-30T17:25:38.301Z,21.52
2023-01-30T17:28:06.667Z,22.67
2023-01-30T17:30:33.858Z,23.65
2023-01-30T17:33:01.090Z,26.90
2023-01-30T17:35:28.312Z,24.77
2023-01-30T17:38:04.719Z,26.33
2023-01-30T17:40:34.153Z,26.25
2023-01-30T17:43:01.373Z,21.77
2023-01-30T17:45:29.018Z,28.63
2023-01-30T17:47:56.281Z,24.48
2023-01-30T17:50:23.613Z,17.98
2023-01-30T17:52:50.775Z,21.00
2023-01-30T17:55:18.219Z,19.50
2023-01-30T17:57:47.267Z,24.27
2023-01-30T18:00:16.260Z,20.10
2023-01-30T18:02:43.484Z,14.65
2023-01-30T18:05:10.677Z,19.27
2023-01-30T18:07:38.284Z,15.95
2023-01-30T18:10:05.717Z,13.25
2023-01-30T18:12:32.862Z,17.65
2023-01-30T18:14:59.996Z,19.40
2023-01-30T18:17:30.345Z,20.02
2023-01-30T18:19:57.526Z,18.55
2023-01-30T18:22:24.676Z,17.05
2023-01-30T18:24:53.038Z,16.23
2023-01-30T18:27:20.159Z,13.35
2023-01-30T18:29:47.323Z,21.20
2023-01-30T18:32:14.697Z,18.65
2023-01-30T18:34:41.914Z,20.33
2023-01-30T18:37:09.045Z,21.60
2023-01-30T18:39:38.168Z,17.70
2023-01-30T18:42:06.411Z,15.15
2023-01-30T18:44:33.767Z,28.20
2023-01-30T18:47:00.853Z,16.63
2023-01-30T18:49:28.115Z,20.63
2023-01-30T18:51:55.247Z,17.50
2023-01-30T18:54:22.423Z,26.88
2023-01-30T18:56:49.566Z,15.60
2023-01-30T18:59:16.737Z,15.50
2023-01-30T19:01:43.871Z,22.00
2023-01-30T19:04:11.919Z,24.73
2023-01-30T19:06:42.138Z,27.05
2023-01-30T19:09:15.184Z,25.63
2023-01-30T19:12:00.852Z,20.42
2023-01-30T19:14:28.072Z,20.33
2023-01-30T19:16:55.274Z,32.78
2023-01-30T19:19:22.440Z,19.13
2023-01-30T19:21:52.116Z,17.02
2023-01-30T19:24:19.450Z,21.15
2023-01-30T19:26:49.889Z,24.98
2023-01-30T19:29:18.235Z,23.80
2023-01-30T19:31:47.174Z,22.15
2023-01-30T19:34:14.506Z,25.33
2023-01-30T19:36:41.799Z,24.77
2023-01-30T19:39:10.529Z,25.42
2023-01-30T19:41:37.808Z,24.52
2023-01-30T19:44:10.102Z,22.80
2023-01-30T19:46:39.860Z,20.40
2023-01-30T19:49:07.239Z,25.25
2023-01-30T19:51:37.502Z,24.83
2023-01-30T19:54:06.197Z,23.65
2023-01-30T19:56:34.022Z,29.10
2023-01-30T19:59:01.687Z,20.70
2023-01-30T20:01:31.044Z,24.35
2023-01-30T20:03:59.018Z,21.27
2023-01-30T20:06:33.199Z,21.15
2023-01-30T20:09:04.784Z,25.58
2023-01-30T20:11:33.645Z,23.48
2023-01-30T20:14:01.934Z,17.63
2023-01-30T20:16:31.216Z,17.55
2023-01-30T20:19:02.810Z,16.10
2023-01-30T20:21:31.021Z,16.98
2023-01-30T20:23:58.568Z,21.10
2023-01-30T20:26:27.607Z,30.52
2023-01-30T20:28:55.595Z,18.67
2023-01-30T20:31:24.378Z,21.02
2023-01-30T20:33:55.635Z,22.15
2023-01-30T20:36:22.912Z,27.83
2023-01-30T20:38:50.379Z,20.55
2023-01-30T20:41:18.709Z,16.23
2023-01-30T20:43:49.012Z,16.42
2023-01-30T20:48:47.366Z,15.65
2023-01-30T20:51:15.669Z,27.13
2023-01-30T20:53:56.097Z,24.48
2023-01-30T20:56:23.717Z,18.40
2023-01-30T20:58:51.185Z,16.98
2023-01-30T21:01:22.957Z,18.35
2023-01-30T21:03:51.246Z,16.70
2023-01-30T21:06:41.885Z,18.83
2023-01-30T21:09:07.213Z,24.42
2023-01-30T21:11:34.727Z,18.10
2023-01-30T21:14:02.115Z,15.35
2023-01-30T21:16:30.392Z,20.38
2023-01-30T21:19:02.299Z,20.15
2023-01-30T21:21:38.231Z,20.27
2023-01-30T21:24:09.687Z,14.50
2023-01-30T21:26:38.087Z,17.95
2023-01-30T21:29:07.893Z,21.63
2023-01-30T21:31:36.082Z,17.15
2023-01-30T21:34:04.805Z,20.70
2023-01-30T21:36:32.480Z,25.42
2023-01-30T21:39:19.909Z,20.42
2023-01-30T21:42:05.573Z,18.48
2023-01-30T21:44:33.825Z,19.25
2023-01-30T21:47:00.901Z,17.65
2023-01-30T21:49:28.138Z,16.55
2023-01-30T21:51:55.687Z,20.85
2023-01-30T21:54:22.942Z,25.35
2023-01-30T21:56:50.447Z,24.35
2023-01-30T21:59:18.556Z,20.30
2023-01-30T22:01:45.701Z,18.35
2023-01-30T22:04:14.296Z,20.50
2023-01-30T22:06:41.719Z,19.85
2023-01-30T22:09:11.770Z,17.63
2023-01-30T22:11:39.083Z,19.20
2023-01-30T22:14:06.298Z,24.90
2023-01-30T22:16:37.352Z,18.92
2023-01-30T22:19:05.126Z,18.58
2023-01-30T22:21:36.652Z,14.30
2023-01-30T22:24:05.241Z,17.13
2023-01-30T22:26:33.874Z,15.07
2023-01-30T22:29:05.050Z,12.82
2023-01-30T22:31:34.460Z,16.88
2023-01-30T22:34:02.558Z,17.67
2023-01-30T22:36:30.736Z,16.10
2023-01-30T22:38:57.851Z,13.95
2023-01-30T22:41:26.170Z,23.15
2023-01-30T22:43:57.578Z,21.20
2023-01-30T22:46:26.191Z,15.05
2023-01-30T22:48:55.838Z,15.15
2023-01-30T22:51:24.603Z,17.67
2023-01-30T22:53:55.975Z,17.00
2023-01-30T22:56:24.308Z,18.23
2023-01-30T22:58:51.616Z,16.85
2023-01-30T23:01:18.740Z,14.20
2023-01-30T23:03:46.700Z,13.45
2023-01-30T23:06:15.384Z,16.90
2023-01-30T23:08:47.033Z,12.63
2023-01-30T23:11:28.198Z,12.73
2023-01-30T23:13:58.155Z,17.17
2023-01-30T23:16:27.111Z,21.17
2023-01-30T23:19:03.399Z,22.50
2023-01-30T23:21:50.814Z,19.63
2023-01-30T23:24:19.554Z,17.80
2023-01-30T23:26:47.931Z,16.70
2023-01-30T23:29:16.269Z,20.65
2023-01-30T23:31:44.464Z,24.17
2023-01-30T23:34:15.993Z,18.83
2023-01-30T23:36:43.364Z,20.52
2023-01-30T23:39:11.965Z,15.48
2023-01-30T23:41:39.252Z,17.23
2023-01-30T23:44:06.530Z,16.20
2023-01-30T23:46:37.994Z,13.07
2023-01-30T23:49:12.877Z,18.05
2023-01-30T23:51:41.576Z,19.75
2023-01-30T23:54:09.162Z,13.93
2023-01-30T23:56:37.691Z,23.08
2023-01-30T23:59:05.087Z,21.13
